CYLU

Kangiqsualujjuaq (Georges River) Airport

ICAO Code CYLU
IATA Code XGR
Name Kangiqsualujjuaq (Georges River) Airport
Location Kangiqsualujjuaq, Quebec, CA
Elevation 217 Feet / 66.1 Meters
Latitude 58.71138889
Longitude -65.99277778
METAR CYLU 072100Z 14013G22KT 15SM FEW045 FEW230 07/M01 A3017 RMK SC1CC1 SC TR CC TR LAST STFD OBS/NEXT 081200 UTC SLP223
Extra information Display Charts and CFS
Display NOTAMS
Runway Length Width Surface Elevation
16 3521 ft 100 ft GRAVEL 158 ft
34 3521 ft 100 ft GRAVEL 217 ft